Time;durP1;ratioP1;P1;durP2;ratioP2;P2;SDS_P1;SDS_P2;PMS_P1;PMS_P2;Temp;Humidity;BMP_temperature;BMP_pressure;BME280_temperature;BME280_humidity;BME280_pressure;Samples;Min_cycle;Max_cycle;Signal;HPM_P1;HPM_P2
2023/01/08 00:00:29;;;;;;;45.72;34.25;;;;;;;;;;5055333;28;20052;-70
2023/01/08 00:02:57;;;;;;;;;;;;;;;;;;5056435;28;20112;-70
2023/01/08 00:05:29;;;;;;;48.83;38.30;;;;;;;;;;5057106;28;19908;-70
2023/01/08 00:08:03;;;;;;;48.45;38.25;;;;;;;;;;5056771;28;20072;-70
2023/01/08 00:10:33;;;;;;;41.08;30.88;;;;;;;;;;5056627;28;20041;-70
2023/01/08 00:13:08;;;;;;;84.60;64.05;;;;;;;;;;5041683;28;20064;-68
2023/01/08 00:15:44;;;;;;;31.17;21.27;;;;;;;;;;5076304;28;20048;-68
2023/01/08 00:18:33;;;;;;;30.73;20.08;;;;;;;;;;5076831;28;20040;-68
2023/01/08 00:21:02;;;;;;;38.60;24.20;;;;;;;;;;5058301;28;20036;-69
2023/01/08 00:24:01;;;;;;;56.72;36.78;;;;;;;;;;5076447;28;20384;-69
2023/01/08 00:26:56;;;;;;;39.83;26.90;;;;;;;;;;5061894;28;20388;-69
2023/01/08 00:29:36;;;;;;;32.65;22.55;;;;;;;;;;5058516;28;20379;-68
2023/01/08 00:32:16;;;;;;;32.67;21.92;;;;;;;;;;5057824;28;20565;-69
2023/01/08 00:34:49;;;;;;;49.30;36.28;;;;;;;;;;5076154;28;20045;-68
2023/01/08 00:37:18;;;;;;;32.40;19.98;;;;;;;;;;5075903;28;20032;-69
2023/01/08 00:39:49;;;;;;;30.00;20.85;;;;;;;;;;5057864;28;20044;-68
2023/01/08 00:42:22;;;;;;;26.50;18.48;;;;;;;;;;5076147;28;20029;-69
2023/01/08 00:44:52;;;;;;;29.98;18.52;;;;;;;;;;5058578;28;20425;-69
2023/01/08 00:47:20;;;;;;;35.43;22.13;;;;;;;;;;5076111;28;20423;-69
2023/01/08 00:50:02;;;;;;;59.42;35.42;;;;;;;;;;5057736;28;20043;-68
2023/01/08 00:52:38;;;;;;;57.10;30.98;;;;;;;;;;5076241;28;20479;-69
2023/01/08 00:55:25;;;;;;;46.45;25.92;;;;;;;;;;5075532;28;20125;-70
2023/01/08 00:58:11;;;;;;;41.08;24.30;;;;;;;;;;5076121;28;20037;-69
2023/01/08 01:01:01;;;;;;;;;;;;;;;;;;;;;
2023/01/08 01:03:45;;;;;;;27.67;18.30;;;;;;;;;;5057383;28;20123;-69
2023/01/08 01:06:24;;;;;;;25.73;17.10;;;;;;;;;;5075721;28;20029;-68
2023/01/08 01:08:59;;;;;;;25.00;16.35;;;;;;;;;;5075564;28;20437;-69
2023/01/08 01:11:46;;;;;;;28.53;17.83;;;;;;;;;;5075226;28;20139;-69
2023/01/08 01:14:26;;;;;;;;;;;;;;;;;;5055904;28;20287;-69
2023/01/08 01:17:20;;;;;;;47.15;21.48;;;;;;;;;;5075753;28;19936;-69
2023/01/08 01:20:30;;;;;;;36.03;18.45;;;;;;;;;;5075364;28;20484;-69
2023/01/08 01:23:22;;;;;;;32.13;17.25;;;;;;;;;;5073600;28;20037;-69
2023/01/08 01:26:06;;;;;;;30.10;17.02;;;;;;;;;;5075285;28;20032;-69
2023/01/08 01:28:42;;;;;;;28.08;17.35;;;;;;;;;;5057004;28;20040;-69
2023/01/08 01:31:37;;;;;;;23.75;15.52;;;;;;;;;;5075212;28;20064;-69
2023/01/08 01:34:19;;;;;;;33.15;17.42;;;;;;;;;;5058951;28;20092;-69
2023/01/08 01:37:00;;;;;;;28.40;16.95;;;;;;;;;;5041439;28;20032;-69
2023/01/08 01:39:30;;;;;;;25.55;16.20;;;;;;;;;;5056885;28;20123;-69
2023/01/08 01:42:00;;;;;;;28.70;17.08;;;;;;;;;;5040496;28;20115;-69
2023/01/08 01:44:32;;;;;;;24.15;15.25;;;;;;;;;;5057322;28;20078;-69
2023/01/08 01:46:59;;;;;;;23.48;15.10;;;;;;;;;;5056752;28;20447;-70
2023/01/08 01:49:26;;;;;;;19.58;13.73;;;;;;;;;;5074546;28;20036;-69
2023/01/08 01:51:54;;;;;;;20.40;15.88;;;;;;;;;;5074783;28;20037;-69
2023/01/08 01:54:22;;;;;;;18.13;14.65;;;;;;;;;;5074335;28;20043;-70
2023/01/08 01:56:53;;;;;;;17.00;13.13;;;;;;;;;;5056553;28;20059;-69
2023/01/08 01:59:21;;;;;;;19.42;13.38;;;;;;;;;;5056406;28;20486;-69
2023/01/08 02:01:49;;;;;;;18.75;12.73;;;;;;;;;;5074558;28;20454;-69
2023/01/08 02:04:16;;;;;;;16.55;13.98;;;;;;;;;;5056392;28;20037;-69
2023/01/08 02:06:49;;;;;;;17.50;12.82;;;;;;;;;;5074499;28;20056;-69
2023/01/08 02:09:19;;;;;;;14.30;11.68;;;;;;;;;;5074716;28;20041;-70
2023/01/08 02:11:45;;;;;;;16.15;11.25;;;;;;;;;;5056442;28;20488;-69
2023/01/08 02:14:37;;;;;;;16.80;12.57;;;;;;;;;;5073989;28;20036;-70
2023/01/08 02:17:06;;;;;;;14.90;11.60;;;;;;;;;;5056044;28;20036;-69
2023/01/08 02:19:43;;;;;;;15.95;13.27;;;;;;;;;;5074326;28;20040;-68
2023/01/08 02:23:07;;;;;;;16.05;11.90;;;;;;;;;;5071955;28;20230;-68
2023/01/08 02:25:46;;;;;;;15.80;12.02;;;;;;;;;;4993204;28;20042;-68
2023/01/08 02:28:23;;;;;;;16.65;12.27;;;;;;;;;;5074184;28;20090;-68
2023/01/08 02:31:04;;;;;;;23.27;14.65;;;;;;;;;;5074378;28;20138;-68
2023/01/08 02:33:48;;;;;;;24.48;15.68;;;;;;;;;;5074038;28;20044;-69
2023/01/08 02:39:50;;;;;;;19.85;14.02;;;;;;;;;;5064891;28;20068;-74
2023/01/08 02:42:25;;;;;;;19.90;15.00;;;;;;;;;;5073982;28;20480;-74
2023/01/08 02:45:10;;;;;;;22.55;15.20;;;;;;;;;;5073684;28;20044;-73
2023/01/08 02:47:42;;;;;;;18.10;14.27;;;;;;;;;;5074216;28;20032;-74
2023/01/08 02:50:24;;;;;;;17.80;13.55;;;;;;;;;;5055645;28;20040;-73
2023/01/08 02:53:09;;;;;;;21.30;15.75;;;;;;;;;;5072932;28;20056;-73
2023/01/08 02:55:36;;;;;;;24.00;16.58;;;;;;;;;;5056217;28;20048;-73
2023/01/08 02:58:02;;;;;;;16.85;13.57;;;;;;;;;;5055534;28;20438;-73
2023/01/08 03:00:29;;;;;;;15.98;12.80;;;;;;;;;;5073807;28;20059;-73
2023/01/08 03:03:09;;;;;;;15.82;12.88;;;;;;;;;;5055550;28;20573;-73
2023/01/08 03:05:37;;;;;;;16.23;12.55;;;;;;;;;;5055963;28;20039;-74
2023/01/08 03:08:03;;;;;;;17.73;12.13;;;;;;;;;;5055855;28;20040;-74
2023/01/08 03:10:35;;;;;;;14.40;11.48;;;;;;;;;;5073739;28;20043;-74
2023/01/08 03:13:07;;;;;;;15.32;11.75;;;;;;;;;;5073262;28;20078;-74
2023/01/08 03:15:48;;;;;;;14.00;11.10;;;;;;;;;;5073811;28;20567;-73
2023/01/08 03:18:22;;;;;;;13.55;10.90;;;;;;;;;;5055643;28;20039;-73
2023/01/08 03:20:57;;;;;;;15.45;11.77;;;;;;;;;;5073620;28;20063;-73
2023/01/08 03:23:23;;;;;;;15.32;11.40;;;;;;;;;;5055693;28;20535;-74
2023/01/08 03:25:49;;;;;;;18.90;15.45;;;;;;;;;;5038764;28;20079;-73
2023/01/08 03:28:20;;;;;;;16.80;13.45;;;;;;;;;;5055165;28;20064;-73
2023/01/08 03:30:48;;;;;;;16.30;13.73;;;;;;;;;;5073502;28;20036;-73
2023/01/08 03:33:16;;;;;;;14.75;11.75;;;;;;;;;;5073479;28;20032;-74
2023/01/08 03:35:44;;;;;;;15.25;11.80;;;;;;;;;;5055060;28;20480;-73
2023/01/08 03:38:15;;;;;;;15.00;10.98;;;;;;;;;;5073633;28;20068;-74
2023/01/08 03:40:40;;;;;;;;;;;;;;;;;;5074157;28;20037;-73
2023/01/08 03:43:06;;;;;;;12.98;10.63;;;;;;;;;;5055623;28;19916;-74
2023/01/08 03:45:38;;;;;;;13.25;10.70;;;;;;;;;;5073250;28;20111;-75
2023/01/08 03:48:04;;;;;;;13.63;10.85;;;;;;;;;;5055101;28;20037;-74
2023/01/08 03:50:30;;;;;;;12.88;10.20;;;;;;;;;;5055442;28;20535;-74
2023/01/08 03:52:56;;;;;;;13.10;10.55;;;;;;;;;;5072986;28;20032;-73
2023/01/08 03:55:22;;;;;;;14.27;11.02;;;;;;;;;;5073183;28;20495;-74
2023/01/08 03:57:47;;;;;;;13.88;10.93;;;;;;;;;;5072962;28;20043;-74
2023/01/08 04:00:15;;;;;;;15.00;11.05;;;;;;;;;;5073190;28;20029;-74
2023/01/08 04:02:41;;;;;;;12.48;9.95;;;;;;;;;;5073192;28;20086;-74
2023/01/08 04:05:08;;;;;;;17.95;12.85;;;;;;;;;;5057970;28;20040;-74
2023/01/08 04:07:35;;;;;;;20.13;14.00;;;;;;;;;;5076512;28;20098;-74
2023/01/08 04:10:01;;;;;;;18.02;12.98;;;;;;;;;;5077036;28;20040;-74
2023/01/08 04:12:26;;;;;;;18.05;12.60;;;;;;;;;;5076238;28;20044;-75
2023/01/08 04:14:52;;;;;;;16.83;12.13;;;;;;;;;;5041750;28;20043;-74
2023/01/08 04:17:17;;;;;;;16.75;12.10;;;;;;;;;;5076903;28;20115;-74
2023/01/08 04:19:43;;;;;;;15.98;12.63;;;;;;;;;;5076872;28;20036;-74
2023/01/08 04:22:10;;;;;;;20.10;13.52;;;;;;;;;;5076572;28;20037;-74
2023/01/08 04:24:35;;;;;;;16.10;12.80;;;;;;;;;;5076114;28;20071;-73
2023/01/08 04:27:02;;;;;;;14.30;11.32;;;;;;;;;;5076455;28;20041;-74
2023/01/08 04:29:28;;;;;;;17.20;12.13;;;;;;;;;;5076393;28;20029;-73
2023/01/08 04:31:54;;;;;;;14.75;12.02;;;;;;;;;;5058818;28;20044;-74
2023/01/08 04:34:19;;;;;;;19.08;13.10;;;;;;;;;;5058665;28;20060;-74
2023/01/08 04:36:45;;;;;;;18.33;13.23;;;;;;;;;;5058090;28;20514;-74
2023/01/08 04:39:13;;;;;;;15.40;13.02;;;;;;;;;;5076241;28;20188;-73
2023/01/08 04:41:39;;;;;;;15.13;12.88;;;;;;;;;;5076192;28;20155;-73
2023/01/08 04:44:10;;;;;;;16.25;13.20;;;;;;;;;;5057477;28;20072;-73
2023/01/08 04:46:37;;;;;;;19.05;14.18;;;;;;;;;;5058292;28;20040;-74
2023/01/08 04:49:04;;;;;;;17.50;13.77;;;;;;;;;;5057786;28;20032;-74
2023/01/08 04:51:29;;;;;;;15.55;12.68;;;;;;;;;;5076037;28;20051;-74
2023/01/08 04:53:56;;;;;;;16.65;12.82;;;;;;;;;;5075598;28;20396;-74
2023/01/08 04:56:25;;;;;;;16.65;12.68;;;;;;;;;;5058488;28;20028;-74
2023/01/08 04:58:51;;;;;;;16.75;12.63;;;;;;;;;;5075561;28;20074;-74
2023/01/08 05:01:24;;;;;;;14.13;11.82;;;;;;;;;;5057519;28;20070;-73
2023/01/08 05:03:58;;;;;;;17.55;13.52;;;;;;;;;;5075442;28;20093;-74
2023/01/08 05:06:25;;;;;;;15.10;13.02;;;;;;;;;;5057883;28;20035;-75
2023/01/08 05:08:52;;;;;;;16.50;12.63;;;;;;;;;;5057824;28;20098;-75
2023/01/08 05:11:17;;;;;;;20.08;13.68;;;;;;;;;;5075409;28;20111;-73
2023/01/08 05:13:46;;;;;;;16.52;12.85;;;;;;;;;;5075751;28;20107;-74
2023/01/08 05:16:16;;;;;;;15.68;12.52;;;;;;;;;;5075083;28;20035;-73
2023/01/08 05:18:44;;;;;;;16.90;12.15;;;;;;;;;;5075122;28;20036;-74
2023/01/08 05:21:18;;;;;;;16.48;12.77;;;;;;;;;;5075099;28;20037;-74
2023/01/08 05:23:48;;;;;;;18.77;13.82;;;;;;;;;;5056964;28;20488;-74
2023/01/08 05:26:19;;;;;;;16.75;13.45;;;;;;;;;;5074949;28;20032;-74
2023/01/08 05:28:45;;;;;;;18.50;13.98;;;;;;;;;;5074972;28;20108;-74
2023/01/08 05:31:11;;;;;;;15.88;12.88;;;;;;;;;;5074953;28;20064;-74
2023/01/08 05:33:37;;;;;;;14.70;12.15;;;;;;;;;;5075108;28;20116;-74
2023/01/08 05:36:09;;;;;;;16.88;13.07;;;;;;;;;;5074761;28;20037;-74
2023/01/08 05:38:35;;;;;;;18.42;13.43;;;;;;;;;;5074688;28;20035;-74
2023/01/08 05:41:01;;;;;;;16.73;13.73;;;;;;;;;;5075029;28;20036;-74
2023/01/08 05:43:27;;;;;;;18.88;14.65;;;;;;;;;;5075004;28;20043;-74
2023/01/08 05:45:52;;;;;;;20.17;13.95;;;;;;;;;;5074859;28;20124;-74
2023/01/08 05:48:58;;;;;;;17.80;13.65;;;;;;;;;;5055708;28;20127;-74
2023/01/08 05:52:33;;;;;;;15.77;13.18;;;;;;;;;;5057513;28;20098;-74
2023/01/08 05:55:51;;;;;;;15.63;12.15;;;;;;;;;;5057188;28;20032;-74
2023/01/08 05:58:57;;;;;;;16.15;13.25;;;;;;;;;;5052047;28;20433;-74
2023/01/08 06:01:48;;;;;;;15.70;12.60;;;;;;;;;;5055305;28;20040;-74
2023/01/08 06:04:35;;;;;;;17.80;13.18;;;;;;;;;;5073283;28;20066;-74
2023/01/08 06:07:17;;;;;;;16.10;13.30;;;;;;;;;;5054810;28;20047;-74
2023/01/08 06:10:16;;;;;;;17.00;14.82;;;;;;;;;;5067852;28;20048;-75
2023/01/08 06:12:48;;;;;;;14.77;12.38;;;;;;;;;;5051666;28;20056;-73
2023/01/08 06:15:26;;;;;;;15.98;12.40;;;;;;;;;;5051958;28;20047;-73
2023/01/08 06:17:59;;;;;;;21.20;13.85;;;;;;;;;;5051522;28;20047;-73
2023/01/08 06:20:27;;;;;;;17.23;13.95;;;;;;;;;;5051059;28;20036;-74
2023/01/08 06:22:56;;;;;;;21.27;13.77;;;;;;;;;;5069334;28;20079;-74
2023/01/08 06:25:27;;;;;;;20.05;14.35;;;;;;;;;;5034989;28;20036;-74
2023/01/08 06:27:54;;;;;;;20.95;14.05;;;;;;;;;;5050904;28;20549;-74
2023/01/08 06:30:28;;;;;;;21.52;14.32;;;;;;;;;;5069444;28;20060;-73
2023/01/08 06:32:59;;;;;;;18.98;13.60;;;;;;;;;;5069235;28;20040;-73
2023/01/08 06:35:26;;;;;;;19.15;13.60;;;;;;;;;;5034719;28;20041;-73
2023/01/08 06:37:59;;;;;;;19.38;13.82;;;;;;;;;;5051616;28;20028;-74
2023/01/08 06:40:28;;;;;;;20.70;15.20;;;;;;;;;;5050525;28;20586;-74
2023/01/08 06:43:04;;;;;;;33.88;23.83;;;;;;;;;;5034818;28;20041;-74
2023/01/08 06:45:34;;;;;;;35.42;24.88;;;;;;;;;;5051039;28;20113;-74
2023/01/08 06:48:02;;;;;;;;;;;;;;;;;;5069531;28;20048;-74
2023/01/08 06:50:37;;;;;;;20.83;15.80;;;;;;;;;;5068787;28;20367;-74
2023/01/08 06:53:17;;;;;;;18.17;14.90;;;;;;;;;;5034237;28;20094;-74
2023/01/08 06:56:19;;;;;;;19.48;15.13;;;;;;;;;;5055725;28;20048;-74
2023/01/08 06:58:53;;;;;;;19.27;13.95;;;;;;;;;;5069040;28;20392;-74
2023/01/08 07:01:31;;;;;;;20.05;13.90;;;;;;;;;;5068903;28;20032;-74
2023/01/08 07:04:36;;;;;;;;;;;;;;;;;;;;;
2023/01/08 07:08:05;;;;;;;25.25;20.08;;;;;;;;;;5069085;28;20043;-73
2023/01/08 07:11:31;;;;;;;73.38;56.25;;;;;;;;;;5068585;28;20044;-74
2023/01/08 07:30:30;;;;;;;18.73;14.85;;;;;;;;;;4998841;28;20095;-73
2023/01/08 07:34:05;;;;;;;24.52;18.98;;;;;;;;;;5019669;28;20049;-73
2023/01/08 07:36:58;;;;;;;19.08;16.58;;;;;;;;;;5012294;28;20041;-74
2023/01/08 07:40:06;;;;;;;19.73;16.63;;;;;;;;;;5031007;28;20061;-74
2023/01/08 07:43:08;;;;;;;20.92;15.30;;;;;;;;;;5032570;28;20038;-74
2023/01/08 07:50:04;;;;;;;;;;;;;;;;;;;;;
2023/01/08 07:53:36;;;;;;;;;;;;;;;;;;;;;
2023/01/08 07:56:54;;;;;;;23.27;16.30;;;;;;;;;;5030315;28;20045;-73
2023/01/08 08:00:10;;;;;;;24.20;18.65;;;;;;;;;;5031428;28;20076;-73
2023/01/08 08:03:30;;;;;;;23.98;20.17;;;;;;;;;;5030514;28;20413;-73
2023/01/08 08:07:03;;;;;;;;;;;;;;;;;;;;;
2023/01/08 08:10:16;;;;;;;;;;;;;;;;;;;;;
2023/01/08 08:13:22;;;;;;;17.60;13.77;;;;;;;;;;5067466;28;20040;-73
2023/01/08 08:16:19;;;;;;;23.02;16.38;;;;;;;;;;5055565;28;20036;-66
2023/01/08 08:18:58;;;;;;;31.45;21.42;;;;;;;;;;5073771;28;20044;-65
2023/01/08 08:22:03;;;;;;;;;;;;;;;;;;;;;
2023/01/08 08:24:39;;;;;;;20.35;15.00;;;;;;;;;;5089162;22;20053;-67
2023/01/08 08:27:04;;;;;;;23.02;18.48;;;;;;;;;;5071307;28;20399;-66
2023/01/08 08:29:29;;;;;;;21.83;16.45;;;;;;;;;;5071961;28;20147;-66
2023/01/08 08:31:55;;;;;;;19.08;15.40;;;;;;;;;;5070821;28;20119;-67
2023/01/08 08:34:21;;;;;;;15.38;12.82;;;;;;;;;;5071256;28;20044;-69
2023/01/08 08:36:49;;;;;;;21.75;14.52;;;;;;;;;;5071346;28;20509;-69
2023/01/08 08:39:14;;;;;;;16.92;12.88;;;;;;;;;;5053227;28;20064;-69
2023/01/08 08:41:41;;;;;;;14.90;11.05;;;;;;;;;;5070856;28;20121;-71
2023/01/08 08:44:06;;;;;;;20.70;17.88;;;;;;;;;;5071084;28;20558;-71
2023/01/08 08:46:32;;;;;;;16.73;13.05;;;;;;;;;;5070940;28;20068;-69
2023/01/08 08:48:57;;;;;;;15.73;10.75;;;;;;;;;;5070735;28;20051;-67
2023/01/08 08:51:28;;;;;;;12.75;10.38;;;;;;;;;;5069760;28;20036;-67
2023/01/08 08:53:53;;;;;;;;;;;;;;;;;;5071328;28;20606;-69
2023/01/08 08:56:19;;;;;;;19.80;12.10;;;;;;;;;;5070924;28;19912;-70
2023/01/08 08:58:45;;;;;;;14.30;11.00;;;;;;;;;;5070945;28;20414;-70
2023/01/08 09:01:13;;;;;;;15.93;12.25;;;;;;;;;;5070640;28;20047;-72
2023/01/08 09:03:49;;;;;;;23.88;15.18;;;;;;;;;;5070661;28;20120;-74
2023/01/08 09:06:19;;;;;;;43.97;31.25;;;;;;;;;;5053389;28;20032;-71
2023/01/08 09:08:46;;;;;;;42.20;25.92;;;;;;;;;;5052852;28;20064;-70
2023/01/08 09:11:13;;;;;;;43.10;20.15;;;;;;;;;;5070253;28;20504;-71
2023/01/08 09:13:42;;;;;;;22.20;13.48;;;;;;;;;;5052471;28;20052;-71
2023/01/08 09:16:08;;;;;;;17.40;11.90;;;;;;;;;;5070561;28;20529;-71
2023/01/08 09:18:34;;;;;;;16.20;12.13;;;;;;;;;;5070653;28;20042;-71
2023/01/08 09:21:06;;;;;;;15.32;12.23;;;;;;;;;;5070412;28;20348;-69
2023/01/08 09:23:39;;;;;;;14.98;11.45;;;;;;;;;;5070472;28;20120;-68
2023/01/08 09:26:06;;;;;;;27.92;17.20;;;;;;;;;;5052237;28;20048;-68
2023/01/08 09:28:40;;;;;;;21.77;14.48;;;;;;;;;;5052497;28;20070;-68
2023/01/08 09:31:31;;;;;;;25.45;16.95;;;;;;;;;;5052566;28;20087;-68
2023/01/08 09:34:05;;;;;;;25.90;17.08;;;;;;;;;;5053067;28;20036;-68
2023/01/08 09:36:41;;;;;;;23.88;16.55;;;;;;;;;;5070392;28;20045;-70
2023/01/08 09:40:04;;;;;;;26.73;17.88;;;;;;;;;;5070048;28;20033;-67
2023/01/08 09:42:37;;;;;;;29.67;18.60;;;;;;;;;;5072291;28;20045;-67
2023/01/08 09:45:12;;;;;;;30.27;18.27;;;;;;;;;;5056500;28;20047;-68
2023/01/08 09:47:50;;;;;;;20.42;14.50;;;;;;;;;;5039688;28;20072;-68
2023/01/08 09:51:27;;;;;;;;;;;;;;;;;;;;;
2023/01/08 09:54:48;;;;;;;15.45;12.38;;;;;;;;;;5073867;28;20384;-71
2023/01/08 09:57:58;;;;;;;;;;;;;;;;;;;;;
2023/01/08 10:01:01;;;;;;;13.25;9.68;;;;;;;;;;5056143;28;20499;-71
2023/01/08 10:03:47;;;;;;;19.80;13.00;;;;;;;;;;5055039;28;20056;-71
2023/01/08 10:06:31;;;;;;;18.25;13.02;;;;;;;;;;5074565;28;20177;-71
2023/01/08 10:09:00;;;;;;;18.85;12.50;;;;;;;;;;5074474;28;20047;-71
2023/01/08 10:11:40;;;;;;;21.20;14.38;;;;;;;;;;5074144;28;20040;-71
2023/01/08 10:18:05;;;;;;;32.72;25.90;;;;;;;;;;5078139;23;20040;-71
2023/01/08 10:20:32;;;;;;;29.58;22.73;;;;;;;;;;5055242;28;20033;-71
2023/01/08 10:23:18;;;;;;;31.95;22.02;;;;;;;;;;5072553;28;20103;-71
2023/01/08 10:25:55;;;;;;;22.98;16.20;;;;;;;;;;5054938;28;20045;-71
2023/01/08 10:28:28;;;;;;;23.88;17.83;;;;;;;;;;5072127;28;20523;-71
2023/01/08 10:31:10;;;;;;;22.83;16.83;;;;;;;;;;5074065;28;20560;-71
2023/01/08 10:33:42;;;;;;;19.40;15.00;;;;;;;;;;5074031;28;20068;-71
2023/01/08 10:36:16;;;;;;;17.50;11.93;;;;;;;;;;5073649;28;20404;-71
2023/01/08 10:38:48;;;;;;;20.63;15.65;;;;;;;;;;5055823;28;20037;-71
2023/01/08 10:41:14;;;;;;;17.70;13.40;;;;;;;;;;5056232;28;20431;-71
2023/01/08 10:43:52;;;;;;;20.13;14.02;;;;;;;;;;5055769;28;20039;-71
2023/01/08 10:46:23;;;;;;;19.33;13.43;;;;;;;;;;5073603;28;20041;-71
2023/01/08 10:48:51;;;;;;;;;;;;;;;;;;5074638;28;20123;-71
2023/01/08 10:51:19;;;;;;;18.20;13.15;;;;;;;;;;5056041;28;19908;-71
2023/01/08 10:53:46;;;;;;;15.85;12.38;;;;;;;;;;5073854;28;20572;-71
2023/01/08 10:56:18;;;;;;;15.75;12.20;;;;;;;;;;5055578;28;20041;-71
2023/01/08 10:58:44;;;;;;;17.38;11.82;;;;;;;;;;5073538;28;20039;-71
2023/01/08 11:01:23;;;;;;;19.65;14.13;;;;;;;;;;5074089;28;20037;-71
2023/01/08 11:03:56;;;;;;;11.88;9.02;;;;;;;;;;5055532;28;20396;-71
2023/01/08 11:06:30;;;;;;;14.13;10.85;;;;;;;;;;5055682;28;20040;-71
2023/01/08 11:09:05;;;;;;;10.18;8.10;;;;;;;;;;5073961;28;20033;-71
2023/01/08 11:11:34;;;;;;;11.88;9.43;;;;;;;;;;5038859;28;20086;-71
2023/01/08 11:14:39;;;;;;;11.50;9.35;;;;;;;;;;5074815;28;20040;-71
2023/01/08 11:17:09;;;;;;;11.25;8.23;;;;;;;;;;5035557;28;20048;-71
2023/01/08 11:19:35;;;;;;;8.80;7.90;;;;;;;;;;5035790;28;20116;-71
2023/01/08 11:22:05;;;;;;;9.63;7.65;;;;;;;;;;5056180;28;20076;-71
2023/01/08 11:24:37;;;;;;;9.65;7.82;;;;;;;;;;5077692;28;20033;-71
2023/01/08 11:27:08;;;;;;;10.75;7.80;;;;;;;;;;5067930;22;20041;-71
2023/01/08 11:29:46;;;;;;;10.57;7.75;;;;;;;;;;5077547;28;20028;-71
2023/01/08 11:32:11;;;;;;;13.23;8.80;;;;;;;;;;5077507;28;20390;-71
2023/01/08 11:34:48;;;;;;;9.45;7.68;;;;;;;;;;5060033;28;20107;-71
2023/01/08 11:37:19;;;;;;;9.80;7.80;;;;;;;;;;5059580;28;20045;-71
2023/01/08 11:39:44;;;;;;;6.90;6.22;;;;;;;;;;5077363;28;20033;-71
2023/01/08 11:42:19;;;;;;;9.40;7.15;;;;;;;;;;5077083;28;20036;-71
2023/01/08 11:44:44;;;;;;;10.85;9.68;;;;;;;;;;5077076;28;20037;-71
2023/01/08 11:47:24;;;;;;;8.57;6.88;;;;;;;;;;5059414;28;20040;-71
2023/01/08 11:49:50;;;;;;;7.95;6.60;;;;;;;;;;5059199;28;20049;-71
2023/01/08 11:52:15;;;;;;;8.32;6.45;;;;;;;;;;5076863;28;20039;-71
2023/01/08 11:54:58;;;;;;;9.40;7.22;;;;;;;;;;5077037;28;20067;-71
2023/01/08 11:57:23;;;;;;;8.32;6.65;;;;;;;;;;5076748;28;20040;-71
2023/01/08 12:00:07;;;;;;;14.63;11.20;;;;;;;;;;5076659;28;20036;-69
2023/01/08 12:02:52;;;;;;;16.63;12.65;;;;;;;;;;5058720;28;20037;-69
2023/01/08 12:05:22;;;;;;;17.52;12.45;;;;;;;;;;5077113;28;20086;-69
2023/01/08 12:08:02;;;;;;;15.50;10.75;;;;;;;;;;5076816;28;20040;-69
2023/01/08 12:10:46;;;;;;;20.73;12.98;;;;;;;;;;5058645;28;20439;-68
2023/01/08 12:13:30;;;;;;;13.02;9.68;;;;;;;;;;5058505;28;20086;-69
2023/01/08 12:15:56;;;;;;;17.02;13.20;;;;;;;;;;5058305;28;20503;-68
2023/01/08 12:18:21;;;;;;;21.52;19.23;;;;;;;;;;5058835;28;20040;-69
2023/01/08 12:21:05;;;;;;;16.92;13.27;;;;;;;;;;5058358;28;20086;-68
2023/01/08 12:23:52;;;;;;;11.50;9.38;;;;;;;;;;5076539;28;20526;-69
2023/01/08 12:26:17;;;;;;;11.35;8.52;;;;;;;;;;5058197;28;20040;-68
2023/01/08 12:28:42;;;;;;;24.92;15.77;;;;;;;;;;5076100;28;20480;-69
2023/01/08 12:31:24;;;;;;;10.63;9.45;;;;;;;;;;5076108;28;20044;-68
2023/01/08 12:33:55;;;;;;;12.45;9.10;;;;;;;;;;5076055;28;20040;-68
2023/01/08 12:36:27;;;;;;;13.13;9.25;;;;;;;;;;5076549;28;20033;-68
2023/01/08 12:38:58;;;;;;;11.27;9.55;;;;;;;;;;5076249;28;20064;-68
2023/01/08 12:41:24;;;;;;;15.13;12.25;;;;;;;;;;5076157;28;20037;-68
2023/01/08 12:44:10;;;;;;;14.27;10.07;;;;;;;;;;5076169;28;20134;-69
2023/01/08 12:46:44;;;;;;;20.00;15.70;;;;;;;;;;5058432;28;20095;-68
2023/01/08 12:49:10;;;;;;;48.97;32.60;;;;;;;;;;5076304;28;20115;-68
2023/01/08 12:51:51;;;;;;;44.33;28.75;;;;;;;;;;5057813;28;20052;-68
2023/01/08 12:54:23;;;;;;;12.48;8.77;;;;;;;;;;5075901;28;20115;-68
2023/01/08 12:56:51;;;;;;;10.45;7.55;;;;;;;;;;5075654;28;20036;-68
2023/01/08 12:59:34;;;;;;;13.15;8.90;;;;;;;;;;5075546;28;20078;-68
2023/01/08 13:02:01;;;;;;;16.30;10.40;;;;;;;;;;5075790;28;20040;-68
2023/01/08 13:04:26;;;;;;;11.65;9.30;;;;;;;;;;5075473;28;20028;-68
2023/01/08 13:06:57;;;;;;;13.05;10.02;;;;;;;;;;5057488;28;20499;-68
2023/01/08 13:09:24;;;;;;;20.10;16.17;;;;;;;;;;5075709;28;20077;-68
2023/01/08 13:11:51;;;;;;;11.10;8.38;;;;;;;;;;5057491;28;20040;-68
2023/01/08 13:14:16;;;;;;;13.25;9.00;;;;;;;;;;5057311;28;20090;-68
2023/01/08 13:16:44;;;;;;;13.80;11.57;;;;;;;;;;5075774;28;20037;-68
2023/01/08 13:19:29;;;;;;;7.95;6.60;;;;;;;;;;5075202;28;20430;-68
2023/01/08 13:21:56;;;;;;;25.65;22.75;;;;;;;;;;5057313;28;20438;-69
2023/01/08 13:24:28;;;;;;;11.88;9.30;;;;;;;;;;5075096;28;20048;-68
2023/01/08 13:26:54;;;;;;;25.77;17.35;;;;;;;;;;5075018;28;20072;-68
2023/01/08 13:29:34;;;;;;;19.42;12.63;;;;;;;;;;5057206;28;20044;-68
2023/01/08 13:32:00;;;;;;;;;;;;;;;;;;5075538;28;20101;-69
2023/01/08 13:34:37;;;;;;;23.70;17.08;;;;;;;;;;5074804;28;20353;-68
2023/01/08 13:37:03;;;;;;;19.13;14.82;;;;;;;;;;5074291;28;20073;-68
2023/01/08 13:39:31;;;;;;;28.88;15.30;;;;;;;;;;5074843;28;20083;-68
2023/01/08 13:42:19;;;;;;;28.48;13.93;;;;;;;;;;5074697;28;20033;-68
2023/01/08 13:44:56;;;;;;;28.65;12.07;;;;;;;;;;5074785;28;20044;-68
2023/01/08 13:47:26;;;;;;;20.08;10.32;;;;;;;;;;5056667;28;20040;-68
2023/01/08 13:49:52;;;;;;;;;;;;;;;;;;5057051;28;20040;-68
2023/01/08 13:52:29;;;;;;;12.75;9.10;;;;;;;;;;5074527;28;20042;-68
2023/01/08 13:54:54;;;;;;;11.75;9.50;;;;;;;;;;5074933;28;20036;-68
2023/01/08 13:57:21;;;;;;;15.05;11.77;;;;;;;;;;5074472;28;20035;-68
2023/01/08 13:59:48;;;;;;;16.92;11.98;;;;;;;;;;5074629;28;20396;-69
2023/01/08 14:02:26;;;;;;;16.30;12.65;;;;;;;;;;5039893;28;20029;-68
2023/01/08 14:04:52;;;;;;;18.63;12.80;;;;;;;;;;5074276;28;20047;-68
2023/01/08 14:07:18;;;;;;;16.98;13.43;;;;;;;;;;5074454;28;20044;-68
2023/01/08 14:09:43;;;;;;;92.65;46.88;;;;;;;;;;5074164;28;20036;-68
2023/01/08 14:12:19;;;;;;;69.22;44.10;;;;;;;;;;5074192;28;20460;-68
2023/01/08 14:14:47;;;;;;;24.02;18.85;;;;;;;;;;5074286;28;20040;-68
2023/01/08 14:17:16;;;;;;;18.00;13.60;;;;;;;;;;5074069;28;20060;-68
2023/01/08 14:19:42;;;;;;;15.15;11.25;;;;;;;;;;5074012;28;20476;-68
2023/01/08 14:22:10;;;;;;;70.03;42.60;;;;;;;;;;5056033;28;20040;-68
2023/01/08 14:24:35;;;;;;;70.25;40.20;;;;;;;;;;5056400;28;20040;-68
2023/01/08 14:27:01;;;;;;;114.32;60.92;;;;;;;;;;5052441;28;20412;-68
2023/01/08 14:29:28;;;;;;;150.15;75.78;;;;;;;;;;5053858;28;20029;-68
2023/01/08 14:31:58;;;;;;;27.38;18.73;;;;;;;;;;5035989;28;20052;-68
2023/01/08 14:34:26;;;;;;;22.23;16.63;;;;;;;;;;5054114;28;20037;-68
2023/01/08 14:36:52;;;;;;;24.92;18.05;;;;;;;;;;5052512;28;20037;-68
2023/01/08 14:39:22;;;;;;;74.53;50.75;;;;;;;;;;5054057;28;20480;-68
2023/01/08 14:44:32;;;;;;;58.40;39.25;;;;;;;;;;5061202;23;20507;-68
2023/01/08 14:46:58;;;;;;;59.55;36.08;;;;;;;;;;5072824;28;20136;-74
2023/01/08 14:49:25;;;;;;;47.97;30.98;;;;;;;;;;5072746;28;20076;-68
2023/01/08 14:51:51;;;;;;;43.17;27.52;;;;;;;;;;5055683;28;20182;-68
2023/01/08 14:54:18;;;;;;;27.35;18.77;;;;;;;;;;5055654;28;20536;-68
2023/01/08 14:56:46;;;;;;;25.80;19.23;;;;;;;;;;5073816;28;20032;-68
2023/01/08 14:59:15;;;;;;;23.45;17.33;;;;;;;;;;5073802;28;20036;-68
2023/01/08 15:01:40;;;;;;;22.63;17.38;;;;;;;;;;5073506;28;20024;-68
2023/01/08 15:04:16;;;;;;;25.20;18.23;;;;;;;;;;5055930;28;20029;-68
2023/01/08 15:06:42;;;;;;;29.05;20.75;;;;;;;;;;5073400;28;20041;-68
2023/01/08 15:09:21;;;;;;;35.75;23.80;;;;;;;;;;5055545;28;20048;-68
2023/01/08 15:11:53;;;;;;;31.30;23.13;;;;;;;;;;5073681;28;20036;-68
2023/01/08 15:14:21;;;;;;;28.83;19.83;;;;;;;;;;5055325;28;20040;-68
2023/01/08 15:16:47;;;;;;;27.60;18.02;;;;;;;;;;5073332;28;20117;-68
2023/01/08 15:19:17;;;;;;;37.35;21.65;;;;;;;;;;5055361;28;20515;-68
2023/01/08 15:21:46;;;;;;;58.43;33.10;;;;;;;;;;5073566;28;20079;-68
2023/01/08 15:24:23;;;;;;;38.05;23.95;;;;;;;;;;5055963;28;20270;-68
2023/01/08 15:26:48;;;;;;;35.45;21.83;;;;;;;;;;5073493;28;20036;-68
2023/01/08 15:29:18;;;;;;;35.88;22.08;;;;;;;;;;5073476;28;20033;-68
2023/01/08 15:31:45;;;;;;;133.38;101.32;;;;;;;;;;5073162;28;20094;-68
2023/01/08 15:34:10;;;;;;;120.82;90.15;;;;;;;;;;5073105;28;20045;-68
2023/01/08 15:36:36;;;;;;;78.50;55.42;;;;;;;;;;5073046;28;20078;-68
2023/01/08 15:39:01;;;;;;;57.20;38.47;;;;;;;;;;5054375;28;20033;-68
2023/01/08 15:44:24;;;;;;;53.47;35.60;;;;;;;;;;5072481;28;20055;-68
2023/01/08 15:46:50;;;;;;;67.40;53.70;;;;;;;;;;5072172;28;20040;-70
2023/01/08 15:49:19;;;;;;;57.65;41.75;;;;;;;;;;5072505;28;20091;-68
2023/01/08 15:51:49;;;;;;;54.37;34.10;;;;;;;;;;5072670;28;20029;-69